Time;durP1;ratioP1;P1;durP2;ratioP2;P2;SDS_P1;SDS_P2;PMS_P1;PMS_P2;Temp;Humidity;BMP_temperature;BMP_pressure;BME280_temperature;BME280_humidity;BME280_pressure;Samples;Min_cycle;Max_cycle;Signal;HPM_P1;HPM_P2
2023/09/14 00:01:54;;;;;;;3.00;1.35;;;16.30;99.90;;;16.45;100.00;101582.63;5181448;28;20054;-51
2023/09/14 00:04:27;;;;;;;2.22;1.48;;;16.20;99.90;;;16.40;100.00;101584.25;5181416;28;20078;-49
2023/09/14 00:06:59;;;;;;;1.55;1.30;;;16.20;99.90;;;16.36;100.00;101585.00;5181544;28;20506;-49
2023/09/14 00:09:32;;;;;;;1.88;1.13;;;16.10;99.90;;;16.33;100.00;101581.44;5181578;28;20076;-49
2023/09/14 00:12:05;;;;;;;2.28;1.40;;;16.10;99.90;;;16.29;100.00;101581.34;5181566;28;20085;-50
2023/09/14 00:14:38;;;;;;;1.83;1.42;;;16.10;99.90;;;16.26;100.00;101578.66;5197925;28;20057;-49
2023/09/14 00:17:11;;;;;;;1.88;1.40;;;16.00;99.90;;;16.22;100.00;101576.78;5181493;28;20058;-50
2023/09/14 00:19:44;;;;;;;1.90;1.45;;;16.00;99.90;;;16.21;100.00;101575.03;5181416;28;20392;-51
2023/09/14 00:22:16;;;;;;;2.10;1.35;;;16.00;99.90;;;16.18;100.00;101574.06;5181314;28;20050;-51
2023/09/14 00:24:49;;;;;;;1.60;1.23;;;15.90;99.90;;;16.14;100.00;101570.47;5181295;28;20124;-50
2023/09/14 00:27:21;;;;;;;1.98;1.20;;;15.90;99.90;;;16.11;100.00;101574.78;5181424;28;20072;-51
2023/09/14 00:29:53;;;;;;;2.97;1.40;;;15.90;99.90;;;16.07;100.00;101571.16;5181434;28;20232;-50
2023/09/14 00:32:27;;;;;;;2.17;1.52;;;15.80;99.90;;;16.06;100.00;101571.16;5181306;28;20065;-49
2023/09/14 00:35:00;;;;;;;1.92;1.67;;;15.80;99.90;;;16.02;100.00;101573.69;5182584;28;20053;-49
2023/09/14 00:37:32;;;;;;;1.95;1.30;;;15.80;99.90;;;16.01;100.00;101571.91;5185133;28;20422;-49
2023/09/14 00:40:07;;;;;;;2.80;1.40;;;15.80;99.90;;;16.00;100.00;101572.75;5185165;28;20092;-49
2023/09/14 00:42:40;;;;;;;;;;;15.80;99.90;;;15.98;100.00;101579.72;5185548;28;20054;-50
2023/09/14 00:45:16;;;;;;;2.40;1.40;;;15.70;99.90;;;15.97;100.00;101569.16;5201532;28;20027;-50
2023/09/14 00:47:52;;;;;;;2.42;1.50;;;15.70;99.90;;;15.95;100.00;101565.59;5185255;28;20057;-50
2023/09/14 00:50:25;;;;;;;3.53;1.85;;;15.70;99.90;;;15.92;100.00;101574.31;5184916;28;20053;-49
2023/09/14 00:53:03;;;;;;;1.98;1.48;;;15.70;99.90;;;15.92;100.00;101579.56;5184761;28;20064;-49
2023/09/14 00:55:36;;;;;;;2.17;1.40;;;15.70;99.90;;;15.93;100.00;101580.47;5185049;28;20135;-49
2023/09/14 00:58:14;;;;;;;2.28;1.42;;;15.70;99.90;;;15.90;100.00;101580.38;5184760;28;20049;-49
2023/09/14 01:00:48;;;;;;;2.05;1.40;;;15.70;99.90;;;15.87;100.00;101578.56;5184703;28;20053;-49
2023/09/14 01:03:23;;;;;;;2.72;1.38;;;15.70;99.90;;;15.87;100.00;101580.31;5200955;28;20054;-49
2023/09/14 01:05:56;;;;;;;2.28;1.52;;;15.60;99.90;;;15.83;100.00;101574.06;5186073;28;20052;-50
2023/09/14 01:08:29;;;;;;;2.17;1.58;;;15.60;99.90;;;15.82;100.00;101585.44;5184325;28;20054;-50
2023/09/14 01:11:01;;;;;;;2.00;1.45;;;15.60;99.90;;;15.81;100.00;101583.66;5184651;28;20065;-49
2023/09/14 01:13:44;;;;;;;3.47;1.77;;;15.60;99.90;;;15.80;100.00;101594.16;5201004;28;20045;-50
2023/09/14 01:16:22;;;;;;;1.90;1.40;;;15.60;99.90;;;15.75;100.00;101586.13;5184510;28;20042;-48
2023/09/14 01:19:10;;;;;;;5.32;1.70;;;15.60;99.90;;;15.77;100.00;101589.69;5184178;28;20491;-50
2023/09/14 01:22:00;;;;;;;2.10;1.50;;;15.50;99.90;;;15.79;100.00;101581.84;5184230;28;20525;-51
2023/09/14 01:24:47;;;;;;;2.47;1.73;;;15.60;99.90;;;15.81;100.00;101586.28;5204616;28;20144;-48
2023/09/14 01:27:22;;;;;;;2.92;1.90;;;15.60;99.90;;;15.84;100.00;101588.97;5204497;28;20042;-50
2023/09/14 01:29:59;;;;;;;3.92;1.55;;;15.60;99.90;;;15.86;100.00;101589.94;5204647;28;20104;-50
2023/09/14 01:32:35;;;;;;;3.17;1.50;;;15.70;99.90;;;15.90;100.00;101601.41;5204565;28;20076;-50
2023/09/14 01:35:08;;;;;;;2.72;1.67;;;15.70;99.90;;;15.91;100.00;101593.56;5204490;28;20111;-49
2023/09/14 01:37:40;;;;;;;2.30;1.42;;;15.70;99.90;;;15.93;100.00;101591.88;5204324;28;20052;-48
2023/09/14 01:40:13;;;;;;;2.78;1.60;;;15.70;99.90;;;15.98;100.00;101600.78;5204319;28;20499;-51
2023/09/14 01:42:47;;;;;;;2.83;1.35;;;15.70;99.90;;;16.02;100.00;101594.72;5204220;28;20535;-49
2023/09/14 01:45:20;;;;;;;3.35;1.60;;;15.80;99.90;;;16.05;100.00;101601.81;5204181;28;20042;-50
2023/09/14 01:47:53;;;;;;;2.90;1.48;;;15.80;99.90;;;16.06;100.00;101597.44;5203235;28;20525;-48
2023/09/14 01:50:25;;;;;;;2.30;1.40;;;15.80;99.90;;;16.06;100.00;101598.31;5204087;28;20449;-50
2023/09/14 01:52:59;;;;;;;3.88;1.63;;;15.80;99.90;;;16.04;100.00;101597.41;5204342;28;20049;-48
2023/09/14 01:55:32;;;;;;;2.22;1.48;;;15.80;99.90;;;16.06;100.00;101597.44;5204161;28;20132;-51
2023/09/14 01:58:05;;;;;;;1.60;1.50;;;15.80;99.90;;;16.04;100.00;101589.53;5204437;28;20479;-50
2023/09/14 02:00:41;;;;;;;3.10;1.55;;;15.80;99.90;;;16.04;100.00;101585.97;5204182;28;20045;-49
2023/09/14 02:03:13;;;;;;;3.63;1.95;;;15.80;99.90;;;16.05;100.00;101590.41;5204145;28;20422;-49
2023/09/14 02:05:46;;;;;;;2.65;1.33;;;15.80;99.90;;;16.07;100.00;101583.44;5205244;28;20521;-49
2023/09/14 02:08:18;;;;;;;2.72;1.60;;;15.80;99.90;;;16.06;100.00;101594.81;5203995;28;20467;-49
2023/09/14 02:10:50;;;;;;;2.88;1.65;;;15.80;99.90;;;16.07;100.00;101588.69;5203636;28;20141;-51
2023/09/14 02:13:24;;;;;;;2.00;1.58;;;15.80;99.90;;;16.05;100.00;101582.53;5235274;22;20407;-68
2023/09/14 02:15:56;;;;;;;1.60;1.48;;;15.80;99.90;;;16.05;100.00;101587.78;5197684;28;20060;-68
2023/09/14 02:18:28;;;;;;;3.50;1.35;;;15.80;99.90;;;16.02;100.00;101592.09;5220072;28;20041;-69
2023/09/14 02:21:00;;;;;;;2.88;1.52;;;15.80;99.90;;;16.02;100.00;101596.47;5195570;28;20045;-68
2023/09/14 02:23:32;;;;;;;2.20;1.70;;;15.80;99.90;;;16.02;100.00;101599.09;5191798;28;20518;-68
2023/09/14 02:26:04;;;;;;;1.77;1.30;;;15.80;99.90;;;16.01;100.00;101605.22;5217910;28;20045;-68
2023/09/14 02:28:38;;;;;;;2.65;1.58;;;15.80;99.90;;;16.02;100.00;101604.34;5203068;28;20047;-67
2023/09/14 02:31:10;;;;;;;2.30;1.60;;;15.80;99.90;;;16.00;100.00;101608.69;5206693;28;20052;-68
2023/09/14 02:33:43;;;;;;;1.95;1.60;;;15.80;99.90;;;16.02;100.00;101609.59;5202871;28;20056;-68
2023/09/14 02:36:16;;;;;;;3.15;1.75;;;15.80;99.90;;;16.00;100.00;101606.94;5171954;28;20129;-69
2023/09/14 02:38:48;;;;;;;2.53;1.60;;;15.80;99.90;;;16.02;100.00;101609.59;5199922;28;20057;-68
2023/09/14 02:41:20;;;;;;;2.13;1.60;;;15.80;99.90;;;15.99;100.00;101606.91;5213648;28;20041;-68
2023/09/14 02:43:54;;;;;;;2.67;1.30;;;15.80;99.90;;;15.96;100.00;101612.97;5200525;28;20053;-68
2023/09/14 02:46:26;;;;;;;3.83;1.70;;;15.70;99.90;;;15.91;100.00;101609.34;5184343;28;20045;-68
2023/09/14 02:48:58;;;;;;;2.47;1.33;;;15.70;99.90;;;15.87;100.00;101615.38;5172999;28;20119;-68
2023/09/14 02:51:31;;;;;;;2.85;1.58;;;15.70;99.90;;;15.82;100.00;101608.22;5186787;28;20056;-69
2023/09/14 02:54:03;;;;;;;2.75;2.05;;;15.60;99.90;;;15.79;100.00;101619.56;5186170;28;20076;-68
2023/09/14 02:56:36;;;;;;;2.03;1.50;;;15.60;99.90;;;15.78;100.00;101617.78;5186948;28;20047;-69
2023/09/14 02:59:10;;;;;;;2.80;1.70;;;15.60;99.90;;;15.79;100.00;101616.91;5213715;28;20037;-69
2023/09/14 03:01:44;;;;;;;2.30;1.45;;;15.60;99.90;;;15.79;100.00;101619.56;5198166;28;20053;-69
2023/09/14 03:04:18;;;;;;;2.65;1.80;;;15.60;99.90;;;15.78;100.00;101617.78;5201344;28;20033;-68
2023/09/14 03:06:51;;;;;;;2.15;1.42;;;15.50;99.90;;;15.77;100.00;101626.47;5200205;28;20104;-67
2023/09/14 03:09:24;;;;;;;1.98;1.30;;;15.60;99.90;;;15.77;100.00;101620.34;5219851;28;20044;-69
2023/09/14 03:11:56;;;;;;;1.92;1.45;;;15.60;99.90;;;15.74;100.00;101622.03;5181529;28;20050;-68
2023/09/14 03:14:30;;;;;;;2.50;1.85;;;15.50;99.90;;;15.72;100.00;101617.59;5185800;28;20049;-68
2023/09/14 03:17:02;;;;;;;3.35;1.70;;;15.50;99.90;;;15.69;100.00;101620.13;5208497;28;20056;-67
2023/09/14 03:19:35;;;;;;;3.13;1.75;;;15.50;99.90;;;15.67;100.00;101619.22;5207730;28;20042;-68
2023/09/14 03:22:08;;;;;;;3.40;1.60;;;15.50;99.90;;;15.64;100.00;101619.13;5165520;28;20050;-69
2023/09/14 03:24:40;;;;;;;2.80;2.00;;;15.40;99.90;;;15.60;100.00;101623.38;5198323;28;20046;-68
2023/09/14 03:27:13;;;;;;;2.28;1.67;;;15.40;99.90;;;15.58;100.00;101619.78;5198595;28;20120;-68
2023/09/14 03:29:48;;;;;;;2.20;1.55;;;15.40;99.90;;;15.54;100.00;101622.31;5194281;28;20041;-68
2023/09/14 03:32:20;;;;;;;1.77;1.27;;;15.30;99.90;;;15.50;100.00;101620.44;5202988;28;20312;-69
2023/09/14 03:34:52;;;;;;;4.22;2.10;;;15.30;99.90;;;15.43;100.00;101620.28;5195866;28;20045;-67
2023/09/14 03:37:25;;;;;;;2.28;1.60;;;15.30;99.90;;;15.40;100.00;101616.69;5219432;28;20065;-67
2023/09/14 03:39:58;;;;;;;2.47;1.77;;;15.20;99.90;;;15.37;100.00;101622.72;5219234;28;20061;-70
2023/09/14 03:42:32;;;;;;;3.13;1.40;;;15.20;99.90;;;15.34;100.00;101620.03;5215330;28;20481;-68
2023/09/14 03:45:07;;;;;;;2.70;1.60;;;15.20;99.90;;;15.33;100.00;101622.63;5180741;28;20045;-68
2023/09/14 03:47:40;;;;;;;2.83;1.77;;;15.10;99.90;;;15.27;100.00;101622.44;5193246;28;20052;-68
2023/09/14 03:50:12;;;;;;;3.40;1.83;;;15.10;99.90;;;15.22;100.00;101621.41;5189022;28;20050;-68
2023/09/14 03:52:44;;;;;;;2.22;1.83;;;15.00;99.90;;;15.20;100.00;101618.75;5193641;28;20064;-68
2023/09/14 03:55:17;;;;;;;3.05;1.35;;;15.00;99.90;;;15.18;100.00;101620.41;5197155;28;20380;-69
2023/09/14 03:57:49;;;;;;;3.00;1.55;;;15.00;99.90;;;15.16;100.00;101619.50;5199204;28;20512;-68
2023/09/14 04:00:24;;;;;;;2.65;1.80;;;15.00;99.90;;;15.14;100.00;101621.19;5202674;28;20427;-68
2023/09/14 04:02:57;;;;;;;2.72;1.73;;;15.00;99.90;;;15.12;100.00;101622.84;5200081;28;20411;-70
2023/09/14 04:05:29;;;;;;;2.85;1.55;;;14.90;99.90;;;15.10;100.00;101620.19;5202741;28;20033;-68
2023/09/14 04:08:02;;;;;;;2.15;1.60;;;14.90;99.90;;;15.08;100.00;101618.38;5198612;28;20046;-68
2023/09/14 04:10:37;;;;;;;2.63;1.60;;;14.90;99.90;;;15.03;100.00;101627.84;5197510;28;20450;-69
2023/09/14 04:13:32;;;;;;;2.97;1.85;;;14.80;99.90;;;14.99;100.00;101618.09;5189598;28;20053;-68
2023/09/14 04:16:13;;;;;;;2.70;1.80;;;14.80;99.90;;;14.96;100.00;101621.53;5216060;28;20446;-69
2023/09/14 04:18:50;;;;;;;3.05;1.95;;;14.80;99.90;;;14.91;100.00;101610.88;5194392;28;20053;-70
2023/09/14 04:21:22;;;;;;;2.63;1.65;;;14.70;99.90;;;14.89;100.00;101615.19;5218312;28;20128;-68
2023/09/14 04:23:55;;;;;;;3.65;1.92;;;14.70;99.90;;;14.86;100.00;101609.84;5211938;28;20067;-68
2023/09/14 04:26:28;;;;;;;3.42;1.80;;;14.70;99.90;;;14.83;100.00;101620.25;5190088;28;20069;-69
2023/09/14 04:29:01;;;;;;;2.85;1.88;;;14.60;99.90;;;14.80;100.00;101625.44;5217462;28;20045;-69
2023/09/14 04:31:35;;;;;;;3.45;1.75;;;14.60;99.90;;;14.75;100.00;101624.41;5219703;28;20635;-69
2023/09/14 04:34:07;;;;;;;2.53;1.95;;;14.60;99.90;;;14.71;100.00;101625.13;5186515;28;20077;-68
2023/09/14 04:36:40;;;;;;;2.05;1.77;;;14.60;99.90;;;14.71;100.00;101625.13;5178038;28;20049;-68
2023/09/14 04:39:12;;;;;;;2.55;1.75;;;14.50;99.90;;;14.69;100.00;101621.59;5202008;28;20054;-69
2023/09/14 04:41:44;;;;;;;5.07;1.80;;;14.50;99.90;;;14.68;100.00;101619.81;5191067;28;20423;-68
2023/09/14 04:44:17;;;;;;;2.03;1.80;;;14.50;99.90;;;14.67;100.00;101628.53;5199280;28;20041;-69
2023/09/14 04:46:51;;;;;;;2.22;1.45;;;14.50;99.90;;;14.66;100.00;101624.09;5211253;28;20371;-68
2023/09/14 04:49:23;;;;;;;1.60;1.50;;;14.50;99.90;;;14.64;100.00;101620.53;5189653;28;20052;-68
2023/09/14 04:51:55;;;;;;;1.90;1.33;;;14.50;99.90;;;14.61;100.00;101630.97;5188654;28;20041;-69
2023/09/14 04:54:29;;;;;;;1.75;1.48;;;14.50;99.90;;;14.57;100.00;101627.31;5208777;28;20046;-68
2023/09/14 04:57:01;;;;;;;2.00;1.30;;;14.40;99.90;;;14.56;100.00;101629.91;5218094;28;20050;-69
2023/09/14 04:59:33;;;;;;;2.10;1.50;;;14.40;99.90;;;14.53;100.00;101635.94;5195962;28;20053;-69
2023/09/14 05:02:08;;;;;;;2.55;1.73;;;14.40;99.90;;;14.51;100.00;101632.38;5212981;28;20073;-68
2023/09/14 05:04:40;;;;;;;2.20;1.63;;;14.30;99.90;;;14.50;100.00;101629.72;5182967;28;20052;-68
2023/09/14 05:07:13;;;;;;;2.47;1.48;;;14.40;99.90;;;14.49;100.00;101635.81;5197498;28;20120;-68
2023/09/14 05:09:45;;;;;;;2.50;1.80;;;14.30;99.90;;;14.47;100.00;101635.72;5197091;28;20049;-68
2023/09/14 05:12:19;;;;;;;3.42;1.60;;;14.30;99.90;;;14.48;100.00;101639.28;5203399;28;20041;-68
2023/09/14 05:14:52;;;;;;;2.67;1.45;;;14.30;99.90;;;14.47;100.00;101645.34;5216747;28;20392;-69
2023/09/14 05:17:26;;;;;;;2.40;1.48;;;14.30;99.90;;;14.46;100.00;101639.22;5200552;28;20045;-68
2023/09/14 05:19:58;;;;;;;2.63;1.55;;;14.30;99.90;;;14.46;100.00;101633.97;5211053;28;20046;-68
2023/09/14 05:22:30;;;;;;;2.03;1.48;;;14.30;99.90;;;14.50;100.00;101643.72;5217385;28;20414;-69
2023/09/14 05:25:03;;;;;;;2.85;1.65;;;14.40;99.90;;;14.51;100.00;101645.50;5215074;28;20045;-70
2023/09/14 05:27:37;;;;;;;4.68;1.80;;;14.40;99.90;;;14.53;100.00;101646.44;5204904;28;20057;-69
2023/09/14 05:30:11;;;;;;;2.50;1.55;;;14.40;99.90;;;14.57;100.00;101653.56;5200939;28;20042;-68
2023/09/14 05:32:45;;;;;;;2.92;1.92;;;14.40;99.90;;;14.62;100.00;101648.47;5207258;28;20550;-69
2023/09/14 05:35:19;;;;;;;2.70;2.00;;;14.40;99.90;;;14.70;100.00;101653.97;5206536;28;20124;-68
2023/09/14 05:37:52;;;;;;;1.98;1.65;;;14.50;99.90;;;14.79;100.00;101659.50;5190000;28;20046;-68
2023/09/14 05:40:24;;;;;;;4.30;2.17;;;14.60;99.90;;;14.87;100.00;101653.66;5212215;28;20056;-68
2023/09/14 05:42:56;;;;;;;4.80;2.08;;;14.70;99.90;;;15.01;100.00;101647.94;5176219;28;20049;-68
2023/09/14 05:45:29;;;;;;;4.47;2.00;;;14.80;99.90;;;15.13;100.00;101645.69;5189434;28;20042;-68
2023/09/14 05:48:05;;;;;;;3.92;2.20;;;14.90;99.90;;;15.26;100.00;101657.41;5200139;28;20045;-69
2023/09/14 05:50:37;;;;;;;2.40;1.58;;;15.00;99.90;;;15.37;100.00;101661.25;5211247;28;20518;-68
2023/09/14 05:53:12;;;;;;;3.90;2.08;;;15.10;99.90;;;15.41;100.00;101664.00;5203791;28;20049;-69
2023/09/14 05:55:44;;;;;;;2.20;1.60;;;15.20;99.90;;;15.40;100.00;101667.50;5186357;28;20515;-68
2023/09/14 05:58:18;;;;;;;2.75;1.90;;;15.20;99.90;;;15.39;100.00;101665.72;5212660;28;20120;-69
2023/09/14 06:00:50;;;;;;;4.63;2.17;;;15.20;99.90;;;15.38;100.00;101665.66;5203558;28;20050;-69
2023/09/14 06:03:24;;;;;;;2.53;1.67;;;15.20;99.90;;;15.36;100.00;101667.34;5185117;28;20053;-73
2023/09/14 06:05:56;;;;;;;2.60;1.77;;;15.20;99.90;;;15.35;100.00;101668.19;5201354;28;20136;-72
2023/09/14 06:08:28;;;;;;;3.65;2.15;;;15.20;99.90;;;15.35;100.00;101669.09;5180135;28;20039;-71
2023/09/14 06:11:01;;;;;;;3.47;1.90;;;15.20;99.90;;;15.29;100.00;101666.28;5197346;28;20528;-71
2023/09/14 06:13:34;;;;;;;4.95;2.13;;;15.10;99.90;;;15.27;100.00;101667.97;5206487;28;20467;-71
2023/09/14 06:16:06;;;;;;;4.25;2.50;;;15.10;99.90;;;15.23;100.00;101679.22;5196465;28;20059;-72
2023/09/14 06:18:40;;;;;;;3.83;2.00;;;15.10;99.90;;;15.22;100.00;101680.09;5194099;28;20045;-71
2023/09/14 06:21:12;;;;;;;2.97;2.08;;;15.10;99.90;;;15.25;100.00;101692.41;5193499;28;20507;-70
2023/09/14 06:23:44;;;;;;;6.57;3.10;;;15.10;99.90;;;15.20;100.00;101680.03;5199543;28;20059;-71
2023/09/14 06:26:17;;;;;;;5.85;2.90;;;15.10;99.90;;;15.20;100.00;101687.03;5202242;28;20524;-70
2023/09/14 06:28:49;;;;;;;5.82;2.55;;;15.10;99.90;;;15.19;100.00;101693.09;5201827;28;20433;-72
2023/09/14 06:31:21;;;;;;;7.07;3.15;;;15.10;99.90;;;15.16;100.00;101693.91;5193133;28;20049;-70
2023/09/14 06:33:55;;;;;;;6.88;2.85;;;15.10;99.90;;;15.15;100.00;101689.50;5184937;28;20095;-70
2023/09/14 06:36:27;;;;;;;5.10;3.13;;;15.00;99.90;;;15.16;100.00;101693.03;5176431;28;20055;-71
2023/09/14 06:38:59;;;;;;;7.07;3.75;;;15.00;99.90;;;15.12;100.00;101691.13;5166421;28;20100;-70
2023/09/14 06:41:32;;;;;;;6.57;2.88;;;15.00;99.90;;;15.14;100.00;101698.25;5184304;28;20053;-70
2023/09/14 06:44:09;;;;;;;6.00;3.17;;;15.00;99.90;;;15.19;100.00;101698.34;5162963;28;20129;-70
2023/09/14 06:46:41;;;;;;;8.13;3.40;;;15.10;99.90;;;15.22;100.00;101693.22;5182568;28;20049;-70
2023/09/14 06:49:14;;;;;;;6.82;3.47;;;15.10;99.90;;;15.29;100.00;101697.81;5164920;28;20054;-70
2023/09/14 06:51:48;;;;;;;6.07;3.28;;;15.10;99.90;;;15.36;100.00;101686.63;5183816;28;20057;-70
2023/09/14 06:54:20;;;;;;;8.27;3.67;;;15.20;99.90;;;15.38;100.00;101691.91;5165938;28;20475;-70
2023/09/14 06:56:52;;;;;;;7.85;3.55;;;15.20;99.90;;;15.41;100.00;101692.91;5161342;28;20041;-70
2023/09/14 06:59:24;;;;;;;9.52;3.35;;;15.30;99.90;;;15.44;100.00;101695.63;5166094;28;20049;-70
2023/09/14 07:01:56;;;;;;;10.48;4.05;;;15.30;99.90;;;15.47;100.00;101700.09;5179237;28;20412;-71
2023/09/14 07:04:30;;;;;;;6.53;3.25;;;15.30;99.90;;;15.49;100.00;101701.00;5149880;28;20048;-71
2023/09/14 07:07:03;;;;;;;10.63;5.22;;;15.30;99.90;;;15.52;100.00;101700.19;5172349;28;20046;-71
2023/09/14 07:09:35;;;;;;;12.55;5.03;;;15.40;99.90;;;15.52;100.00;101700.19;5162041;28;20042;-70
2023/09/14 07:12:07;;;;;;;9.75;3.90;;;15.40;99.90;;;15.58;100.00;101706.53;5182709;28;20431;-71
2023/09/14 07:14:40;;;;;;;12.93;4.97;;;15.40;99.90;;;15.67;100.00;101713.84;5171577;28;20045;-71
2023/09/14 07:17:12;;;;;;;10.35;4.32;;;15.50;99.90;;;15.70;100.00;101708.66;5166207;28;20042;-71
2023/09/14 07:19:45;;;;;;;14.30;5.97;;;15.50;99.90;;;15.73;100.00;101714.00;5165801;28;20129;-71
2023/09/14 07:22:19;;;;;;;16.83;6.63;;;15.60;99.90;;;15.73;100.00;101711.38;5165318;28;20038;-71
2023/09/14 07:24:51;;;;;;;12.73;5.82;;;15.60;99.90;;;15.76;100.00;101714.09;5183160;28;20431;-71
2023/09/14 07:27:24;;;;;;;11.55;5.00;;;15.60;99.90;;;15.84;100.00;101725.69;5183270;28;20038;-71
2023/09/14 07:29:56;;;;;;;17.23;7.28;;;15.70;99.90;;;15.87;100.00;101720.53;5165642;28;20057;-71
2023/09/14 07:32:28;;;;;;;15.65;6.50;;;15.70;99.90;;;15.86;100.00;101725.75;5149098;28;20522;-71
2023/09/14 07:35:02;;;;;;;15.27;7.00;;;15.70;99.90;;;15.86;100.00;101721.41;5165770;28;20407;-71
2023/09/14 07:37:34;;;;;;;13.75;5.32;;;15.70;99.90;;;15.90;100.00;101723.25;5165826;28;20038;-71
2023/09/14 07:40:08;;;;;;;11.00;5.30;;;15.70;99.90;;;15.98;100.00;101728.75;5165214;28;20096;-71
2023/09/14 07:42:40;;;;;;;18.67;7.75;;;15.80;99.90;;;16.08;100.00;101717.59;5182978;28;20057;-71
2023/09/14 07:45:12;;;;;;;12.50;5.95;;;15.90;99.90;;;16.17;100.00;101717.88;5181740;28;20131;-71
2023/09/14 07:47:45;;;;;;;12.25;5.22;;;16.00;99.90;;;16.27;100.00;101724.25;5166817;28;20193;-71
2023/09/14 07:50:19;;;;;;;14.38;6.20;;;16.00;99.90;;;16.30;100.00;101724.34;5149807;28;20068;-71
2023/09/14 07:52:51;;;;;;;11.75;5.90;;;16.10;99.90;;;16.35;100.00;101730.59;5165173;28;20131;-71
2023/09/14 07:55:25;;;;;;;10.27;4.90;;;16.10;99.90;;;16.40;100.00;101726.34;5182807;28;20045;-71
2023/09/14 07:57:57;;;;;;;12.32;5.32;;;16.20;99.90;;;16.45;100.00;101735.25;5165644;28;20046;-71
2023/09/14 08:00:29;;;;;;;11.43;4.70;;;16.20;99.90;;;16.54;100.00;101735.47;5183113;28;20500;-71
2023/09/14 08:03:02;;;;;;;9.10;4.65;;;16.30;99.90;;;16.65;100.00;101734.88;5183333;28;20077;-71
2023/09/14 08:05:35;;;;;;;10.38;4.63;;;16.40;99.90;;;16.75;100.00;101734.25;5165690;28;20045;-71
2023/09/14 08:08:07;;;;;;;9.73;4.82;;;16.40;99.90;;;16.90;100.00;101724.09;5148802;28;20485;-71
2023/09/14 08:10:40;;;;;;;9.75;5.03;;;16.60;99.90;;;17.03;100.00;101736.72;5149246;28;20054;-71
2023/09/14 08:13:12;;;;;;;10.68;4.45;;;16.70;99.90;;;17.08;100.00;101734.16;5164457;28;20054;-71
2023/09/14 08:15:44;;;;;;;8.68;3.90;;;16.70;99.90;;;17.15;100.00;101724.66;5181600;28;20503;-71
2023/09/14 08:18:18;;;;;;;8.60;4.38;;;16.80;99.90;;;17.20;100.00;101728.28;5182543;28;20077;-71
2023/09/14 08:20:52;;;;;;;13.20;5.75;;;16.90;99.90;;;17.19;100.00;101737.06;5182674;28;20566;-71
2023/09/14 08:23:25;;;;;;;11.13;4.72;;;16.90;99.90;;;17.16;100.00;101726.47;5182400;28;20057;-71
2023/09/14 08:25:57;;;;;;;10.40;4.90;;;16.90;99.90;;;17.17;100.00;101741.41;5183322;28;20049;-71
2023/09/14 08:28:30;;;;;;;10.20;4.80;;;16.90;99.90;;;17.22;100.00;101743.31;5181380;28;20136;-71
2023/09/14 08:31:02;;;;;;;11.23;5.10;;;16.90;99.90;;;17.32;100.00;101744.38;5182737;28;20451;-71
2023/09/14 08:33:34;;;;;;;11.48;5.45;;;17.00;99.90;;;17.39;100.00;101748.94;5182369;28;20062;-71
2023/09/14 08:36:08;;;;;;;11.05;5.97;;;17.00;99.90;;;17.58;100.00;101747.59;5182346;28;20042;-71
2023/09/14 08:38:40;;;;;;;12.48;5.80;;;17.10;99.90;;;17.68;100.00;101749.56;5177007;28;20057;-72
2023/09/14 08:41:22;;;;;;;13.55;5.65;;;17.30;99.90;;;17.78;100.00;101753.31;5161475;28;20520;-71
2023/09/14 08:43:56;;;;;;;12.18;5.57;;;17.30;99.90;;;17.80;100.00;101752.50;5164848;28;20108;-71
2023/09/14 08:46:28;;;;;;;16.35;6.97;;;17.40;99.90;;;17.71;100.00;101756.63;5182479;28;20038;-71
2023/09/14 08:49:01;;;;;;;16.60;7.95;;;17.30;99.90;;;17.59;100.00;101752.88;5163730;28;20525;-71
2023/09/14 08:51:38;;;;;;;16.65;7.43;;;17.30;99.90;;;17.52;100.00;101753.59;5164990;28;20042;-71
2023/09/14 08:54:10;;;;;;;12.07;6.30;;;17.30;99.90;;;17.61;100.00;101747.66;5181810;28;20129;-71
2023/09/14 08:56:43;;;;;;;9.35;4.93;;;17.30;99.90;;;17.74;100.00;101748.84;5166864;28;20058;-71
2023/09/14 08:59:19;;;;;;;9.80;5.07;;;17.40;99.90;;;17.86;100.00;101743.78;5148730;28;20400;-72
2023/09/14 09:01:52;;;;;;;12.18;6.13;;;17.50;99.90;;;18.03;100.00;101741.50;5168554;28;20057;-71
2023/09/14 09:04:25;;;;;;;14.55;7.40;;;17.60;99.90;;;18.22;100.00;101751.53;5151554;28;20112;-71
2023/09/14 09:06:59;;;;;;;10.88;5.43;;;17.80;99.90;;;18.48;100.00;101745.84;5186283;28;20323;-71
2023/09/14 09:09:31;;;;;;;10.93;4.95;;;18.00;99.90;;;18.80;100.00;101754.34;5168465;28;20061;-71
2023/09/14 09:12:03;;;;;;;12.90;5.65;;;18.20;99.90;;;18.99;100.00;101745.84;5152189;28;20551;-72
2023/09/14 09:14:38;;;;;;;11.15;5.57;;;18.40;99.90;;;19.09;100.00;101744.22;5185184;28;20052;-72
2023/09/14 09:17:09;;;;;;;9.90;5.03;;;18.50;99.90;;;19.15;100.00;101742.56;5151718;28;20580;-72
2023/09/14 09:19:50;;;;;;;10.45;5.47;;;18.60;99.90;;;19.16;100.00;101744.31;5185899;28;20492;-72
2023/09/14 09:22:24;;;;;;;10.82;5.80;;;18.60;99.90;;;19.13;100.00;101744.28;5165920;28;20054;-72
2023/09/14 09:24:59;;;;;;;9.15;4.40;;;18.60;99.90;;;19.20;100.00;101743.50;5168089;28;20415;-72
2023/09/14 09:27:31;;;;;;;10.18;5.00;;;18.70;99.90;;;19.41;100.00;101749.97;5167951;28;20114;-72
2023/09/14 09:30:05;;;;;;;17.00;8.43;;;18.80;99.90;;;19.56;100.00;101739.63;5168137;28;20069;-71
2023/09/14 09:32:38;;;;;;;10.60;4.95;;;19.00;99.90;;;20.01;100.00;101746.31;5185049;28;20563;-66
2023/09/14 09:35:19;;;;;;;8.27;4.75;;;19.40;99.90;;;20.41;100.00;101739.72;5184893;28;20045;-71
2023/09/14 09:37:55;;;;;;;10.07;4.95;;;19.70;99.90;;;20.79;100.00;101745.34;5167636;28;20522;-70
2023/09/14 09:40:29;;;;;;;15.00;7.97;;;20.00;99.90;;;20.94;100.00;101736.63;5185115;28;20073;-71
2023/09/14 09:43:03;;;;;;;;;;;20.30;99.90;;;21.13;100.00;101737.66;5185130;28;20065;-71
2023/09/14 09:45:40;;;;;;;14.45;6.45;;;20.50;99.90;;;21.32;100.00;101728.03;5184937;28;20008;-71
2023/09/14 09:48:12;;;;;;;8.07;5.00;;;20.70;99.90;;;21.66;100.00;101729.13;5167651;28;20049;-71
2023/09/14 09:50:45;;;;;;;16.40;8.25;;;20.90;99.90;;;21.82;100.00;101727.38;5184967;28;20041;-71
2023/09/14 09:53:18;;;;;;;11.65;5.88;;;21.10;99.90;;;21.99;100.00;101727.44;5150854;28;20107;-71
2023/09/14 09:55:52;;;;;;;10.65;5.57;;;21.30;99.90;;;22.18;100.00;101724.88;5185037;28;20050;-72
2023/09/14 09:58:35;;;;;;;8.65;4.97;;;21.50;99.90;;;22.44;100.00;101732.88;5184749;28;20042;-73
2023/09/14 10:01:07;;;;;;;10.45;4.68;;;21.70;99.90;;;22.69;99.61;101723.13;5185403;28;20120;-71
2023/09/14 10:03:40;;;;;;;10.25;4.80;;;21.90;99.90;;;22.82;98.43;101724.00;5166264;28;20108;-72
2023/09/14 10:06:12;;;;;;;8.45;4.47;;;22.00;99.90;;;23.07;98.26;101721.31;5184839;28;20057;-72
2023/09/14 10:08:53;;;;;;;10.63;4.90;;;22.30;99.90;;;23.25;97.29;101716.84;5166970;28;20053;-72
2023/09/14 10:11:27;;;;;;;7.75;3.92;;;22.40;99.90;;;23.31;95.94;101713.28;5183707;28;20062;-71
2023/09/14 10:14:03;;;;;;;11.70;5.65;;;22.50;99.90;;;23.06;94.62;101719.56;5162993;28;20533;-71
2023/09/14 10:16:42;;;;;;;9.18;5.00;;;22.40;99.90;;;22.74;95.00;101717.78;5151127;28;20038;-71
2023/09/14 10:19:16;;;;;;;8.75;4.20;;;22.20;99.90;;;22.65;96.92;101715.16;5181374;28;20049;-71
2023/09/14 10:21:52;;;;;;;7.72;4.00;;;22.10;99.90;;;22.58;97.60;101713.38;5163398;28;20034;-71
2023/09/14 10:24:27;;;;;;;6.07;3.58;;;22.00;99.90;;;22.46;97.99;101714.25;5180147;28;20052;-72
2023/09/14 10:26:59;;;;;;;4.65;3.00;;;21.90;99.90;;;22.35;99.01;101713.38;5184564;28;20042;-71
2023/09/14 10:29:35;;;;;;;7.97;4.07;;;21.80;99.90;;;22.23;99.27;101711.56;5165621;28;20058;-70
2023/09/14 10:32:11;;;;;;;5.28;3.05;;;21.70;99.90;;;22.13;99.12;101709.81;5166433;28;20057;-73